createdAt,value
2018-03-28T00:00:03.302Z,68.00
2018-03-28T00:01:03.255Z,67.80
2018-03-28T00:02:03.213Z,65.50
2018-03-28T00:03:03.163Z,73.30
2018-03-28T00:04:03.118Z,77.60
2018-03-28T00:05:03.072Z,76.80
2018-03-28T00:06:03.036Z,72.00
2018-03-28T00:07:02.980Z,80.80
2018-03-28T00:08:02.937Z,79.10
2018-03-28T00:09:02.894Z,78.90
2018-03-28T00:10:02.847Z,81.40
2018-03-28T00:11:02.799Z,82.20
2018-03-28T00:12:02.757Z,86.50
2018-03-28T00:13:02.710Z,83.80
2018-03-28T00:14:02.663Z,87.00
2018-03-28T00:15:02.617Z,88.60
2018-03-28T00:16:02.571Z,88.00
2018-03-28T00:17:02.525Z,94.30
2018-03-28T00:18:02.481Z,99.20
2018-03-28T00:19:02.435Z,97.80
2018-03-28T00:20:02.391Z,92.90
2018-03-28T00:21:02.345Z,104.60
2018-03-28T00:22:02.298Z,104.50
2018-03-28T00:23:02.251Z,101.20
2018-03-28T00:24:02.209Z,115.50
2018-03-28T00:25:02.163Z,112.20
2018-03-28T00:26:02.118Z,108.20
2018-03-28T00:27:02.070Z,106.30
2018-03-28T00:28:02.029Z,115.30
2018-03-28T00:29:01.980Z,115.60
2018-03-28T00:30:01.944Z,112.00
2018-03-28T00:31:01.890Z,125.60
2018-03-28T00:32:01.845Z,127.60
2018-03-28T00:33:01.798Z,117.80
2018-03-28T00:34:01.754Z,131.30
2018-03-28T00:35:01.712Z,132.20
2018-03-28T00:36:01.663Z,129.40
2018-03-28T00:37:01.618Z,125.10
2018-03-28T00:38:01.570Z,141.00
2018-03-28T00:39:01.527Z,144.00
2018-03-28T00:40:01.482Z,139.80
2018-03-28T00:41:01.438Z,140.90
2018-03-28T00:42:01.390Z,143.90
2018-03-28T00:43:01.347Z,137.30
2018-03-28T00:44:01.299Z,154.40
2018-03-28T00:45:01.256Z,149.00
2018-03-28T00:46:01.208Z,149.20
2018-03-28T00:47:01.167Z,157.20
2018-03-28T00:48:01.120Z,147.60
2018-03-28T00:49:01.072Z,148.90
2018-03-28T00:50:01.025Z,149.70
2018-03-28T00:51:00.984Z,133.40
2018-03-28T00:52:00.936Z,152.00
2018-03-28T00:53:00.889Z,201.50
2018-03-28T00:54:00.848Z,199.10
2018-03-28T00:55:00.799Z,163.50
2018-03-28T00:56:00.755Z,153.70
2018-03-28T00:57:00.715Z,170.40
2018-03-28T00:58:00.665Z,178.40
2018-03-28T00:59:00.617Z,152.70
2018-03-28T01:00:00.572Z,173.50
2018-03-28T01:01:00.528Z,173.20
2018-03-28T01:02:00.484Z,161.10
2018-03-28T01:03:00.438Z,186.90
2018-03-28T01:04:00.391Z,164.80
2018-03-28T01:05:00.348Z,144.00
2018-03-28T01:06:00.303Z,137.10
2018-03-28T01:07:00.259Z,140.40
2018-03-28T01:08:00.209Z,134.20
2018-03-28T01:09:00.163Z,128.40
2018-03-28T01:10:00.122Z,129.90
2018-03-28T01:11:00.074Z,127.60
2018-03-28T01:12:00.030Z,129.40
2018-03-28T01:12:59.984Z,133.60
2018-03-28T01:13:59.939Z,130.10
2018-03-28T01:14:59.892Z,133.20
2018-03-28T01:15:59.848Z,120.50
2018-03-28T01:16:59.802Z,114.50
2018-03-28T01:17:59.758Z,117.30
2018-03-28T01:18:59.711Z,122.30
2018-03-28T01:19:59.667Z,123.70
2018-03-28T01:20:59.623Z,119.40
2018-03-28T01:21:59.575Z,122.70
2018-03-28T01:22:59.529Z,120.20
2018-03-28T01:23:59.483Z,118.20
2018-03-28T01:24:59.438Z,117.90
2018-03-28T01:25:59.396Z,128.00
2018-03-28T01:26:59.349Z,127.70
2018-03-28T01:27:59.306Z,133.90
2018-03-28T01:28:59.263Z,130.90
2018-03-28T01:29:59.213Z,133.00
2018-03-28T01:30:59.166Z,143.10
2018-03-28T01:31:59.122Z,137.90
2018-03-28T01:32:59.082Z,133.30
2018-03-28T01:33:59.031Z,144.50
2018-03-28T01:34:58.987Z,138.90
2018-03-28T01:35:58.947Z,138.60
2018-03-28T01:36:58.897Z,140.30
2018-03-28T01:37:58.850Z,139.70
2018-03-28T01:38:58.804Z,142.70
2018-03-28T01:39:58.766Z,145.40
2018-03-28T01:40:58.718Z,139.60
2018-03-28T01:41:58.669Z,152.30
2018-03-28T01:42:58.625Z,142.10
2018-03-28T01:43:58.579Z,135.80
2018-03-28T01:44:58.533Z,131.50
2018-03-28T01:45:58.514Z,137.30
2018-03-28T01:46:58.447Z,132.20
2018-03-28T01:47:58.405Z,130.60
2018-03-28T01:48:58.350Z,124.70
2018-03-28T01:49:58.317Z,132.60
2018-03-28T01:50:58.261Z,130.80
2018-03-28T01:51:58.218Z,119.00
2018-03-28T01:52:58.171Z,121.40
2018-03-28T01:53:58.138Z,121.30
2018-03-28T01:54:58.081Z,123.80
2018-03-28T01:55:58.037Z,119.00
2018-03-28T01:56:57.992Z,117.50
2018-03-28T01:57:57.946Z,111.40
2018-03-28T01:58:57.901Z,126.80
2018-03-28T01:59:57.854Z,122.50
2018-03-28T02:00:57.808Z,120.40
2018-03-28T02:01:57.779Z,117.50
2018-03-28T02:02:57.721Z,120.20
2018-03-28T02:03:57.675Z,128.80
2018-03-28T02:04:57.628Z,130.10
2018-03-28T02:05:57.586Z,127.10
2018-03-28T02:06:57.554Z,128.50
2018-03-28T02:07:57.492Z,127.00
2018-03-28T02:08:57.447Z,133.90
2018-03-28T02:09:57.407Z,118.50
2018-03-28T02:10:57.353Z,124.30
2018-03-28T02:11:57.311Z,118.20
2018-03-28T02:12:57.284Z,112.70
2018-03-28T02:13:57.253Z,114.40
2018-03-28T02:14:57.174Z,115.60
2018-03-28T02:15:57.130Z,118.00
2018-03-28T02:16:57.136Z,112.50
2018-03-28T02:17:57.039Z,126.80
2018-03-28T02:18:56.998Z,123.00
2018-03-28T02:19:56.947Z,124.40
2018-03-28T02:20:56.902Z,126.20
2018-03-28T02:21:56.860Z,120.70
2018-03-28T02:22:56.814Z,121.90
2018-03-28T02:23:56.767Z,119.40
2018-03-28T02:24:56.719Z,125.40
2018-03-28T02:25:56.675Z,130.40
2018-03-28T02:26:56.645Z,126.90
2018-03-28T02:27:56.583Z,123.50
2018-03-28T02:28:56.541Z,131.50
2018-03-28T02:29:56.497Z,128.20
2018-03-28T02:30:56.449Z,133.20
2018-03-28T02:31:56.404Z,124.10
2018-03-28T02:32:56.360Z,126.80
2018-03-28T02:33:56.314Z,121.40
2018-03-28T02:34:56.270Z,124.50
2018-03-28T02:35:56.225Z,124.70
2018-03-28T02:36:56.177Z,119.30
2018-03-28T02:37:56.139Z,114.60
2018-03-28T02:38:56.086Z,122.00
2018-03-28T02:39:56.043Z,122.80
2018-03-28T02:40:56.001Z,116.10
2018-03-28T02:41:55.953Z,127.30
2018-03-28T02:42:55.911Z,120.90
2018-03-28T02:43:55.866Z,117.10
2018-03-28T02:44:55.840Z,115.60
2018-03-28T02:45:55.773Z,120.10
2018-03-28T02:46:55.728Z,110.60
2018-03-28T02:47:55.682Z,104.40
2018-03-28T02:48:55.636Z,115.90
2018-03-28T02:49:55.589Z,107.50
2018-03-28T02:50:55.544Z,115.70
2018-03-28T02:51:55.509Z,110.20
2018-03-28T02:52:55.464Z,109.10
2018-03-28T02:53:55.423Z,111.00
2018-03-28T02:54:55.366Z,116.90
2018-03-28T02:55:55.320Z,117.60
2018-03-28T02:56:55.275Z,119.70
2018-03-28T02:57:55.229Z,121.60
2018-03-28T02:58:55.185Z,124.10
2018-03-28T02:59:55.139Z,125.90
2018-03-28T03:00:55.098Z,122.50
2018-03-28T03:01:55.048Z,122.50
2018-03-28T03:02:55.004Z,129.00
2018-03-28T03:03:54.957Z,124.00
2018-03-28T03:04:54.912Z,131.60
2018-03-28T03:05:54.868Z,126.40
2018-03-28T03:06:54.824Z,133.40
2018-03-28T03:07:54.776Z,125.60
2018-03-28T03:08:54.731Z,136.40
2018-03-28T03:09:54.688Z,130.10
2018-03-28T03:10:54.642Z,127.50
2018-03-28T03:11:54.597Z,122.90
2018-03-28T03:12:54.552Z,122.60
2018-03-28T03:13:54.509Z,130.80
2018-03-28T03:14:54.464Z,122.20
2018-03-28T03:15:54.416Z,129.20
2018-03-28T03:16:54.371Z,129.10
2018-03-28T03:17:54.333Z,118.20
2018-03-28T03:18:54.283Z,117.20
2018-03-28T03:19:54.238Z,115.00
2018-03-28T03:20:54.194Z,124.30
2018-03-28T03:21:54.146Z,127.40
2018-03-28T03:22:54.098Z,128.80
2018-03-28T03:23:54.057Z,121.30
2018-03-28T03:24:54.019Z,112.00
2018-03-28T03:25:53.966Z,115.20
2018-03-28T03:26:53.926Z,110.50
2018-03-28T03:27:53.876Z,103.60
2018-03-28T03:28:53.830Z,101.80
2018-03-28T03:29:53.789Z,101.30
2018-03-28T03:30:53.742Z,100.40
2018-03-28T03:31:53.694Z,105.10
2018-03-28T03:32:53.649Z,101.50
2018-03-28T03:33:53.603Z,99.80
2018-03-28T03:34:53.622Z,97.60
2018-03-28T03:35:53.516Z,99.00
2018-03-28T03:36:53.521Z,105.90
2018-03-28T03:37:53.425Z,103.00
2018-03-28T03:38:53.381Z,104.80
2018-03-28T03:39:53.334Z,110.70
2018-03-28T03:40:53.292Z,110.40
2018-03-28T03:41:53.244Z,115.20
2018-03-28T03:42:53.203Z,110.20
2018-03-28T03:43:53.163Z,106.00
2018-03-28T03:44:53.108Z,98.10
2018-03-28T03:45:53.071Z,106.70
2018-03-28T03:46:53.015Z,108.50
2018-03-28T03:47:52.975Z,105.90
2018-03-28T03:48:52.927Z,99.00
2018-03-28T03:49:52.882Z,99.10
2018-03-28T03:50:52.836Z,101.80
2018-03-28T03:51:52.792Z,104.30
2018-03-28T03:52:52.744Z,107.60
2018-03-28T03:53:52.703Z,104.50
2018-03-28T03:54:52.657Z,101.60
2018-03-28T03:55:52.611Z,113.30
2018-03-28T03:56:52.564Z,110.90
2018-03-28T03:57:52.521Z,119.60
2018-03-28T03:58:52.536Z,114.00
2018-03-28T03:59:52.431Z,106.70
2018-03-28T04:00:52.388Z,107.10
2018-03-28T04:01:52.340Z,117.20
2018-03-28T04:02:52.295Z,111.70
2018-03-28T04:03:52.253Z,107.30
2018-03-28T04:04:52.209Z,110.50
2018-03-28T04:05:52.164Z,115.70
2018-03-28T04:06:52.118Z,110.60
2018-03-28T04:07:52.070Z,105.70
2018-03-28T04:08:52.025Z,104.00
2018-03-28T04:09:51.984Z,107.20
2018-03-28T04:10:51.939Z,106.60
2018-03-28T04:11:51.889Z,110.40
2018-03-28T04:12:51.845Z,115.40
2018-03-28T04:13:51.800Z,112.40
2018-03-28T04:14:51.760Z,116.30
2018-03-28T04:15:51.709Z,119.50
2018-03-28T04:16:51.668Z,118.10
2018-03-28T04:17:51.638Z,120.00
2018-03-28T04:18:51.577Z,122.40
2018-03-28T04:19:51.533Z,116.30
2018-03-28T04:20:51.485Z,113.40
2018-03-28T04:21:51.438Z,111.50
2018-03-28T04:22:51.393Z,112.20
2018-03-28T04:23:51.349Z,114.80
2018-03-28T04:24:51.307Z,110.30
2018-03-28T04:25:51.260Z,118.40
2018-03-28T04:26:51.215Z,122.30
2018-03-28T04:27:51.169Z,113.80
2018-03-28T04:28:51.126Z,114.30
2018-03-28T04:29:51.080Z,109.40
2018-03-28T04:30:51.034Z,109.50
2018-03-28T04:31:50.994Z,110.10
2018-03-28T04:32:50.941Z,114.20
2018-03-28T04:33:50.905Z,115.20
2018-03-28T04:34:50.852Z,108.70
2018-03-28T04:35:50.809Z,109.10
2018-03-28T04:36:50.761Z,109.10
2018-03-28T04:37:50.724Z,111.00
2018-03-28T04:38:50.673Z,107.70
2018-03-28T04:39:50.627Z,112.90
2018-03-28T04:40:50.584Z,110.70
2018-03-28T04:41:50.539Z,110.70
2018-03-28T04:42:50.490Z,102.70
2018-03-28T04:43:50.453Z,102.80
2018-03-28T04:44:50.401Z,102.10
2018-03-28T04:45:50.355Z,105.90
2018-03-28T04:46:50.312Z,98.80
2018-03-28T04:47:50.267Z,95.90
2018-03-28T04:48:50.226Z,91.10
2018-03-28T04:49:50.180Z,96.20
2018-03-28T04:50:50.129Z,98.70
2018-03-28T04:51:50.086Z,100.90
2018-03-28T04:52:50.045Z,101.00
2018-03-28T04:53:49.997Z,105.20
2018-03-28T04:54:49.953Z,102.50
2018-03-28T04:55:49.954Z,103.00
2018-03-28T04:56:49.868Z,110.40
2018-03-28T04:57:49.816Z,110.10
2018-03-28T04:58:49.768Z,112.90
2018-03-28T04:59:49.726Z,119.70
2018-03-28T05:00:49.680Z,123.40
2018-03-28T05:01:49.637Z,119.10
2018-03-28T05:02:49.587Z,124.00
2018-03-28T05:03:49.545Z,122.90
2018-03-28T05:04:49.505Z,130.60
2018-03-28T05:05:49.454Z,126.60
2018-03-28T05:06:49.421Z,133.20
2018-03-28T05:07:49.366Z,136.80
2018-03-28T05:08:49.319Z,139.10
2018-03-28T05:09:49.272Z,145.20
2018-03-28T05:10:49.226Z,141.00
2018-03-28T05:11:49.184Z,140.40
2018-03-28T05:12:49.142Z,138.60
2018-03-28T05:13:49.102Z,125.80
2018-03-28T05:14:49.051Z,139.50
2018-03-28T05:15:49.012Z,140.00
2018-03-28T05:16:48.959Z,139.40
2018-03-28T05:17:48.913Z,130.70
2018-03-28T05:18:48.870Z,115.80
2018-03-28T05:19:48.823Z,113.80
2018-03-28T05:20:48.780Z,113.20
2018-03-28T05:21:48.740Z,105.30
2018-03-28T05:22:48.712Z,108.60
2018-03-28T05:23:48.651Z,101.50
2018-03-28T05:24:48.597Z,103.20
2018-03-28T05:25:48.552Z,108.00
2018-03-28T05:26:48.509Z,107.60
2018-03-28T05:27:48.458Z,105.10
2018-03-28T05:28:48.412Z,95.50
2018-03-28T05:29:48.376Z,94.90
2018-03-28T05:30:48.335Z,96.40
2018-03-28T05:31:48.277Z,96.40
2018-03-28T05:32:48.242Z,99.20
2018-03-28T05:33:48.185Z,91.50
2018-03-28T05:34:48.140Z,93.60
2018-03-28T05:35:48.104Z,89.80
2018-03-28T05:36:48.050Z,91.40
2018-03-28T05:37:48.004Z,88.20
2018-03-28T05:38:47.963Z,86.90
2018-03-28T05:39:47.927Z,85.80
2018-03-28T05:40:47.870Z,92.90
2018-03-28T05:41:47.826Z,87.00
2018-03-28T05:42:47.802Z,84.40
2018-03-28T05:43:47.736Z,88.50
2018-03-28T05:44:47.692Z,92.80
2018-03-28T05:45:47.650Z,86.80
2018-03-28T05:46:47.597Z,92.90
2018-03-28T05:47:47.550Z,89.40
2018-03-28T05:48:47.509Z,89.40
2018-03-28T05:49:47.461Z,89.80
2018-03-28T05:50:47.416Z,92.30
2018-03-28T05:51:47.373Z,95.50
2018-03-28T05:52:47.326Z,89.50
2018-03-28T05:53:47.279Z,90.90
2018-03-28T05:54:47.232Z,88.70
2018-03-28T05:55:47.237Z,90.30
2018-03-28T05:56:47.142Z,85.50
2018-03-28T05:57:47.096Z,91.50
2018-03-28T05:58:47.053Z,86.90
2018-03-28T05:59:47.007Z,83.70
2018-03-28T06:00:46.968Z,86.40
2018-03-28T06:01:46.913Z,82.50
2018-03-28T06:02:46.872Z,88.00
2018-03-28T06:03:46.831Z,90.40
2018-03-28T06:04:46.778Z,91.10
2018-03-28T06:05:46.748Z,86.00
2018-03-28T06:06:46.689Z,81.40
2018-03-28T06:07:46.647Z,81.70
2018-03-28T06:08:46.598Z,82.30
2018-03-28T06:09:46.552Z,78.70
2018-03-28T06:10:46.505Z,80.40
2018-03-28T06:11:46.460Z,86.10
2018-03-28T06:12:46.418Z,84.10
2018-03-28T06:13:46.370Z,87.00
2018-03-28T06:14:46.328Z,90.30
2018-03-28T06:15:46.280Z,90.70
2018-03-28T06:16:46.237Z,87.10
2018-03-28T06:17:46.193Z,91.50
2018-03-28T06:18:46.148Z,93.00
2018-03-28T06:19:46.098Z,90.40
2018-03-28T06:20:46.056Z,93.10
2018-03-28T06:21:46.010Z,85.20
2018-03-28T06:22:45.965Z,87.90
2018-03-28T06:23:45.925Z,95.20
2018-03-28T06:24:45.878Z,87.80
2018-03-28T06:25:45.830Z,88.30
2018-03-28T06:26:45.795Z,86.00
2018-03-28T06:27:45.747Z,82.80
2018-03-28T06:28:45.692Z,85.10
2018-03-28T06:29:45.645Z,81.50
2018-03-28T06:30:45.608Z,80.70
2018-03-28T06:31:45.556Z,83.20
2018-03-28T06:32:45.509Z,84.10
2018-03-28T06:33:45.472Z,83.30
2018-03-28T06:34:45.419Z,81.50
2018-03-28T06:35:45.375Z,87.90
2018-03-28T06:36:45.330Z,82.10
2018-03-28T06:37:45.282Z,85.90
2018-03-28T06:38:45.238Z,84.40
2018-03-28T06:39:45.197Z,85.00
2018-03-28T06:40:45.147Z,84.10
2018-03-28T06:41:45.153Z,84.20
2018-03-28T06:42:45.061Z,84.90
2018-03-28T06:43:45.015Z,87.20
2018-03-28T06:44:44.965Z,86.30
2018-03-28T06:45:44.919Z,86.80
2018-03-28T06:46:44.874Z,89.30
2018-03-28T06:47:44.831Z,87.80
2018-03-28T06:48:44.784Z,87.40
2018-03-28T06:49:44.739Z,86.00
2018-03-28T06:50:44.699Z,88.40
2018-03-28T06:51:44.650Z,90.00
2018-03-28T06:52:44.604Z,93.20
2018-03-28T06:53:44.561Z,88.50
2018-03-28T06:54:44.513Z,87.70
2018-03-28T06:55:44.473Z,88.90
2018-03-28T06:56:44.423Z,92.70
2018-03-28T06:57:44.379Z,85.20
2018-03-28T06:58:44.331Z,88.10
2018-03-28T06:59:44.302Z,90.10
2018-03-28T07:00:44.244Z,92.10
2018-03-28T07:01:44.197Z,93.30
2018-03-28T07:02:44.154Z,90.10
2018-03-28T07:03:44.108Z,90.30
2018-03-28T07:04:44.062Z,89.50
2018-03-28T07:05:44.017Z,93.00
2018-03-28T07:06:43.971Z,92.40
2018-03-28T07:07:43.935Z,88.10
2018-03-28T07:08:43.885Z,88.00
2018-03-28T07:09:43.844Z,94.80
2018-03-28T07:10:43.790Z,94.90
2018-03-28T07:11:43.749Z,90.00
2018-03-28T07:12:43.706Z,91.60
2018-03-28T07:13:43.655Z,96.00
2018-03-28T07:14:43.613Z,91.50
2018-03-28T07:15:43.565Z,90.00
2018-03-28T07:16:43.519Z,90.50
2018-03-28T07:17:43.475Z,88.00
2018-03-28T07:18:43.430Z,90.50
2018-03-28T07:19:43.385Z,96.60
2018-03-28T07:20:43.390Z,93.00
2018-03-28T07:21:43.302Z,87.70
2018-03-28T07:22:43.252Z,92.20
2018-03-28T07:23:43.205Z,87.40
2018-03-28T07:24:43.159Z,89.40
2018-03-28T07:25:43.114Z,95.70
2018-03-28T07:26:43.069Z,91.30
2018-03-28T07:27:43.029Z,87.50
2018-03-28T07:28:42.979Z,84.40
2018-03-28T07:29:42.936Z,83.70
2018-03-28T07:30:42.890Z,86.30
2018-03-28T07:31:42.845Z,85.80
2018-03-28T07:32:42.802Z,83.40
2018-03-28T07:33:42.761Z,83.10
2018-03-28T07:34:42.714Z,79.80
2018-03-28T07:35:42.666Z,78.20
2018-03-28T07:36:42.621Z,77.90
2018-03-28T07:37:42.577Z,74.50
2018-03-28T07:38:42.532Z,74.10
2018-03-28T07:39:42.489Z,79.00
2018-03-28T07:40:42.447Z,77.00
2018-03-28T07:41:42.401Z,72.50
2018-03-28T07:42:42.354Z,72.10
2018-03-28T07:43:42.309Z,73.90
2018-03-28T07:44:42.265Z,75.30
2018-03-28T07:45:42.221Z,72.80
2018-03-28T07:46:42.181Z,71.50
2018-03-28T07:47:42.134Z,67.10
2018-03-28T07:48:42.088Z,65.80
2018-03-28T07:49:42.043Z,69.90
2018-03-28T07:50:41.996Z,69.40
2018-03-28T07:51:41.952Z,67.50
2018-03-28T07:52:41.906Z,65.00
2018-03-28T07:53:41.862Z,64.30
2018-03-28T07:54:41.820Z,66.10
2018-03-28T07:55:41.772Z,67.00
2018-03-28T07:56:41.728Z,65.60
2018-03-28T07:57:41.686Z,67.10
2018-03-28T07:58:41.640Z,66.80
2018-03-28T07:59:41.594Z,64.00
2018-03-28T08:00:41.550Z,64.50
2018-03-28T08:01:41.507Z,61.90
2018-03-28T08:02:41.461Z,63.00
2018-03-28T08:03:41.423Z,63.20
2018-03-28T08:04:41.371Z,66.10
2018-03-28T08:05:41.327Z,64.80
2018-03-28T08:06:41.281Z,63.00
2018-03-28T08:07:41.238Z,67.30
2018-03-28T08:08:41.198Z,64.30
2018-03-28T08:09:41.150Z,64.80
2018-03-28T08:10:41.106Z,65.90
2018-03-28T08:11:41.059Z,67.00
2018-03-28T08:12:41.074Z,65.80
2018-03-28T08:13:40.977Z,63.80
2018-03-28T08:14:40.926Z,72.30
2018-03-28T08:15:40.888Z,73.20
2018-03-28T08:16:40.837Z,67.70
2018-03-28T08:17:40.791Z,72.10
2018-03-28T08:18:40.747Z,67.50
2018-03-28T08:19:40.703Z,67.90
2018-03-28T08:20:40.661Z,64.10
2018-03-28T08:21:40.614Z,66.90
2018-03-28T08:22:40.574Z,67.50
2018-03-28T08:23:40.529Z,66.50
2018-03-28T08:24:40.482Z,60.60
2018-03-28T08:25:40.440Z,59.30
2018-03-28T08:26:40.402Z,63.60
2018-03-28T08:27:40.347Z,60.90
2018-03-28T08:28:40.308Z,62.30
2018-03-28T08:29:40.259Z,56.90
2018-03-28T08:30:40.218Z,56.70
2018-03-28T08:31:40.177Z,58.00
2018-03-28T08:32:40.129Z,57.70
2018-03-28T08:33:40.082Z,52.40
2018-03-28T08:34:40.040Z,54.30
2018-03-28T08:35:39.995Z,52.80
2018-03-28T08:36:39.951Z,51.70
2018-03-28T08:37:39.911Z,52.80
2018-03-28T08:38:39.859Z,49.40
2018-03-28T08:39:39.860Z,52.60
2018-03-28T08:40:39.776Z,52.80
2018-03-28T08:41:39.729Z,53.60
2018-03-28T08:42:39.686Z,54.20
2018-03-28T08:43:39.640Z,52.70
2018-03-28T08:44:39.596Z,52.70
2018-03-28T08:45:39.554Z,53.70
2018-03-28T08:46:39.510Z,56.70
2018-03-28T08:47:39.461Z,54.20
2018-03-28T08:48:39.420Z,53.10
2018-03-28T08:49:39.375Z,51.90
2018-03-28T08:50:39.337Z,55.50
2018-03-28T08:51:39.287Z,52.50
2018-03-28T08:52:39.242Z,55.60
2018-03-28T08:53:39.199Z,56.70
2018-03-28T08:54:39.155Z,53.80
2018-03-28T08:55:39.110Z,55.10
2018-03-28T08:56:39.069Z,51.00
2018-03-28T08:57:39.022Z,52.10
2018-03-28T08:58:38.978Z,50.20
2018-03-28T08:59:38.935Z,47.10
2018-03-28T09:00:38.892Z,53.00
2018-03-28T09:01:38.849Z,48.50
2018-03-28T09:02:38.801Z,50.30
2018-03-28T09:03:38.763Z,47.50
2018-03-28T09:04:38.715Z,47.00
2018-03-28T09:05:38.673Z,48.40
2018-03-28T09:06:38.625Z,48.80
2018-03-28T09:07:38.581Z,50.00
2018-03-28T09:08:38.537Z,48.80
2018-03-28T09:09:38.493Z,49.30
2018-03-28T09:10:38.446Z,48.20
2018-03-28T09:11:38.436Z,50.40
2018-03-28T09:12:38.368Z,50.50
2018-03-28T09:13:38.321Z,47.00
2018-03-28T09:14:38.274Z,48.40
2018-03-28T09:15:38.231Z,48.30
2018-03-28T09:16:38.189Z,46.80
2018-03-28T09:17:38.147Z,47.90
2018-03-28T09:18:38.097Z,51.80
2018-03-28T09:19:38.053Z,48.70
2018-03-28T09:20:38.009Z,50.70
2018-03-28T09:21:37.964Z,49.90
2018-03-28T09:22:37.922Z,53.70
2018-03-28T09:23:37.880Z,53.80
2018-03-28T09:24:37.833Z,51.30
2018-03-28T09:25:37.787Z,56.20
2018-03-28T09:26:37.745Z,58.10
2018-03-28T09:27:37.702Z,57.40
2018-03-28T09:28:37.657Z,58.30
2018-03-28T09:29:37.615Z,59.00
2018-03-28T09:30:37.570Z,54.50
2018-03-28T09:31:37.527Z,52.70
2018-03-28T09:32:37.484Z,50.30
2018-03-28T09:33:37.442Z,50.50
2018-03-28T09:34:37.399Z,48.00
2018-03-28T09:35:37.350Z,46.10
2018-03-28T09:36:37.306Z,49.40
2018-03-28T09:37:37.264Z,47.20
2018-03-28T09:38:37.220Z,46.00
2018-03-28T09:39:37.201Z,49.30
2018-03-28T09:40:37.134Z,48.40
2018-03-28T09:41:37.096Z,47.20
2018-03-28T09:42:37.046Z,48.40
2018-03-28T09:43:39.059Z,48.90
2018-03-28T09:44:36.960Z,48.80
2018-03-28T09:45:36.916Z,46.90
2018-03-28T09:46:36.875Z,48.60
2018-03-28T09:47:36.828Z,44.40
2018-03-28T09:48:36.785Z,45.80
2018-03-28T09:49:36.751Z,45.70
2018-03-28T09:50:36.699Z,47.00
2018-03-28T09:51:36.652Z,47.40
2018-03-28T09:52:36.612Z,46.40
2018-03-28T09:53:36.568Z,46.60
2018-03-28T09:54:36.522Z,47.00
2018-03-28T09:55:36.478Z,45.50
2018-03-28T09:56:36.437Z,43.50
2018-03-28T09:57:36.395Z,44.80
2018-03-28T09:58:36.349Z,45.70
2018-03-28T09:59:36.305Z,47.20
2018-03-28T10:00:36.262Z,44.00
2018-03-28T10:01:36.217Z,47.60
2018-03-28T10:02:36.175Z,48.90
2018-03-28T10:03:36.132Z,48.60
2018-03-28T10:04:36.093Z,46.90
2018-03-28T10:05:36.047Z,47.40
2018-03-28T10:06:36.003Z,47.60
2018-03-28T10:07:35.958Z,47.80
2018-03-28T10:08:35.915Z,50.40
2018-03-28T10:09:35.877Z,48.00
2018-03-28T10:10:35.829Z,49.50
2018-03-28T10:11:35.784Z,51.70
2018-03-28T10:12:35.742Z,49.80
2018-03-28T10:13:35.697Z,52.30
2018-03-28T10:14:35.654Z,50.80
2018-03-28T10:15:35.611Z,53.00
2018-03-28T10:16:35.572Z,51.60
2018-03-28T10:17:35.522Z,49.80
2018-03-28T10:18:35.487Z,54.40
2018-03-28T10:19:35.437Z,52.00
2018-03-28T10:20:35.394Z,52.30
2018-03-28T10:21:35.350Z,54.10
2018-03-28T10:22:35.306Z,56.20
2018-03-28T10:23:35.265Z,54.90
2018-03-28T10:24:35.223Z,53.30
2018-03-28T10:25:35.186Z,55.80
2018-03-28T10:26:35.136Z,50.00
2018-03-28T10:27:35.092Z,52.10
2018-03-28T10:28:35.056Z,52.50
2018-03-28T10:29:35.015Z,54.90
2018-03-28T10:30:34.963Z,53.10
2018-03-28T10:31:34.916Z,52.00
2018-03-28T10:32:34.872Z,53.40
2018-03-28T10:33:34.838Z,53.10
2018-03-28T10:34:34.789Z,57.40
2018-03-28T10:35:34.743Z,54.70
2018-03-28T10:36:34.700Z,58.30
2018-03-28T10:37:34.658Z,59.60
2018-03-28T10:38:34.617Z,59.90
2018-03-28T10:39:34.567Z,59.90
2018-03-28T10:40:34.524Z,63.60
2018-03-28T10:41:34.482Z,59.80
2018-03-28T10:42:34.436Z,59.40
2018-03-28T10:43:34.389Z,56.30
2018-03-28T10:44:39.256Z,58.00
2018-03-28T10:45:34.306Z,60.00
2018-03-28T10:46:34.260Z,60.70
2018-03-28T10:47:34.216Z,60.50
2018-03-28T10:48:34.248Z,63.40
2018-03-28T10:49:34.133Z,63.80
2018-03-28T10:50:34.087Z,65.30
2018-03-28T10:51:34.042Z,70.00
2018-03-28T10:52:34.002Z,62.40
2018-03-28T10:53:33.955Z,59.50
2018-03-28T10:54:33.916Z,56.40
2018-03-28T10:55:33.870Z,55.00
2018-03-28T10:56:33.824Z,55.20
2018-03-28T10:57:33.779Z,56.00
2018-03-28T10:58:33.733Z,55.50
2018-03-28T10:59:33.692Z,55.00
2018-03-28T11:00:33.649Z,50.00
2018-03-28T11:01:33.610Z,51.70
2018-03-28T11:02:33.566Z,51.70
2018-03-28T11:03:33.517Z,54.50
2018-03-28T11:04:33.536Z,55.20
2018-03-28T11:05:33.430Z,52.00
2018-03-28T11:06:33.385Z,50.60
2018-03-28T11:07:33.340Z,48.60
2018-03-28T11:08:33.298Z,52.10
2018-03-28T11:09:33.255Z,56.40
2018-03-28T11:10:33.211Z,51.60
2018-03-28T11:11:33.164Z,53.80
2018-03-28T11:12:33.120Z,54.10
2018-03-28T11:13:33.077Z,54.20
2018-03-28T11:14:33.033Z,53.20
2018-03-28T11:15:32.990Z,54.50
2018-03-28T11:16:32.951Z,51.30
2018-03-28T11:17:32.905Z,50.70
2018-03-28T11:18:32.872Z,50.50
2018-03-28T11:19:32.815Z,51.20
2018-03-28T11:20:32.801Z,50.30
2018-03-28T11:21:32.729Z,50.30
2018-03-28T11:22:32.685Z,52.50
2018-03-28T11:23:32.639Z,51.40
2018-03-28T11:24:32.597Z,50.70
2018-03-28T11:25:32.554Z,53.80
2018-03-28T11:26:32.507Z,56.50
2018-03-28T11:27:32.463Z,56.40
2018-03-28T11:28:32.420Z,56.50
2018-03-28T11:29:32.384Z,54.60
2018-03-28T11:30:32.332Z,53.50
2018-03-28T11:31:32.289Z,50.50
2018-03-28T11:32:32.247Z,52.70
2018-03-28T11:33:32.203Z,52.10
2018-03-28T11:34:32.161Z,52.30
2018-03-28T11:35:32.114Z,53.20
2018-03-28T11:36:32.071Z,51.70
2018-03-28T11:37:32.026Z,51.40
2018-03-28T11:38:31.985Z,51.10
2018-03-28T11:39:31.939Z,50.30
2018-03-28T11:40:31.894Z,49.90
2018-03-28T11:41:31.868Z,50.80
2018-03-28T11:42:31.806Z,49.70
2018-03-28T11:43:31.765Z,46.40
2018-03-28T11:44:31.720Z,47.20
2018-03-28T11:45:31.680Z,48.30
2018-03-28T11:46:31.630Z,45.90
2018-03-28T11:47:31.589Z,44.10
2018-03-28T11:48:31.546Z,48.00
2018-03-28T11:49:31.503Z,50.50
2018-03-28T11:50:31.460Z,48.00
2018-03-28T11:51:31.417Z,47.60
2018-03-28T11:52:31.370Z,47.00
2018-03-28T11:53:31.325Z,43.20
2018-03-28T11:54:31.284Z,46.60
2018-03-28T11:55:31.238Z,49.30
2018-03-28T11:56:31.195Z,46.20
2018-03-28T11:57:31.150Z,41.90
2018-03-28T11:58:31.110Z,45.60
2018-03-28T11:59:31.062Z,44.60
2018-03-28T12:00:31.019Z,47.00
2018-03-28T12:01:30.974Z,41.90
2018-03-28T12:02:30.932Z,43.50
2018-03-28T12:03:30.913Z,42.10
2018-03-28T12:04:30.852Z,41.80
2018-03-28T12:05:30.799Z,44.40
2018-03-28T12:06:30.756Z,43.10
2018-03-28T12:07:30.716Z,41.00
2018-03-28T12:08:30.677Z,42.30
2018-03-28T12:09:30.628Z,47.20
2018-03-28T12:10:30.581Z,53.30
2018-03-28T12:11:30.538Z,47.50
2018-03-28T12:12:30.494Z,48.10
2018-03-28T12:13:30.454Z,45.10
2018-03-28T12:14:30.408Z,44.80
2018-03-28T12:15:30.363Z,50.80
2018-03-28T12:16:30.321Z,49.30
2018-03-28T12:17:30.279Z,49.40
2018-03-28T12:18:30.239Z,50.80
2018-03-28T12:19:30.193Z,47.80
2018-03-28T12:20:30.146Z,48.10
2018-03-28T12:21:30.102Z,47.60
2018-03-28T12:22:30.058Z,51.40
2018-03-28T12:23:30.019Z,50.40
2018-03-28T12:24:29.969Z,48.00
2018-03-28T12:25:29.927Z,50.10
2018-03-28T12:26:29.887Z,53.20
2018-03-28T12:27:29.840Z,51.90
2018-03-28T12:28:29.800Z,49.60
2018-03-28T12:29:29.757Z,54.00
2018-03-28T12:30:29.716Z,52.50
2018-03-28T12:31:29.661Z,57.80
2018-03-28T12:32:29.619Z,53.80
2018-03-28T12:33:29.574Z,56.80
2018-03-28T12:34:29.534Z,50.30
2018-03-28T12:35:29.492Z,57.00
2018-03-28T12:36:29.445Z,63.40
2018-03-28T12:37:29.401Z,63.80
2018-03-28T12:38:29.356Z,73.20
2018-03-28T12:39:29.321Z,84.90
2018-03-28T12:40:29.273Z,76.10
2018-03-28T12:41:29.227Z,71.30
2018-03-28T12:42:29.183Z,60.80